Amazonia, Missouri
Current Conditions -  °F | °C
As of 8:53 PM on Wednesday 22 Oct 2014 (Local Time) from KSTJ Reporting Station
Clear Clear  
Wind Chill: 64°   Ceiling: Unl
Heat Index: 64°   Visibility: 10mi
Dew Point: 52°   Wind: 9mph
Humidity: 65%   Direction: 140°SE
Pressure: 30.09"   Gusts: NA
Location:  39.89°N, 94.89°W
Report Text: KSTJ 230153Z AUTO 14008KT 10SM CLR 18/11 A3009 RMK AO2 SLP188 T01780111
Loading
Personal Weather Stations






























Interactive Weather Map
Tropical Storm Tracking
New forecast layout! Learn more

10-Day Weather Forecast

Advertisements
Track Severe Weather on mobile